createdAt,value
2022-11-25T00:01:52.233Z,93.26
2022-11-25T00:04:21.460Z,93.27
2022-11-25T00:06:50.900Z,93.34
2022-11-25T00:09:20.105Z,93.20
2022-11-25T00:11:49.480Z,92.96
2022-11-25T00:14:18.699Z,92.85
2022-11-25T00:16:48.948Z,92.82
2022-11-25T00:19:18.775Z,92.73
2022-11-25T00:21:48.334Z,92.81
2022-11-25T00:24:17.824Z,92.66
2022-11-25T00:26:47.356Z,92.28
2022-11-25T00:29:16.569Z,92.44
2022-11-25T00:31:45.976Z,92.42
2022-11-25T00:34:16.210Z,92.62
2022-11-25T00:36:45.545Z,92.68
2022-11-25T00:39:17.163Z,92.72
2022-11-25T00:42:05.180Z,92.74
2022-11-25T00:44:38.620Z,92.86
2022-11-25T00:47:20.054Z,92.54
2022-11-25T00:49:51.358Z,92.68
2022-11-25T00:52:23.813Z,92.59
2022-11-25T00:54:53.543Z,92.89
2022-11-25T00:57:24.867Z,92.91
2022-11-25T00:59:54.684Z,93.06
2022-11-25T01:02:24.578Z,92.90
2022-11-25T01:04:53.988Z,92.99
2022-11-25T01:07:23.453Z,92.71
2022-11-25T01:09:52.793Z,92.97
2022-11-25T01:12:22.118Z,93.00
2022-11-25T01:14:53.026Z,93.40
2022-11-25T01:17:22.359Z,93.43
2022-11-25T01:19:51.854Z,93.49
2022-11-25T01:22:21.812Z,93.56
2022-11-25T01:24:51.047Z,93.75
2022-11-25T01:27:21.640Z,93.80
2022-11-25T01:29:51.074Z,93.74
2022-11-25T01:32:20.279Z,93.86
2022-11-25T01:34:49.605Z,94.02
2022-11-25T01:37:18.822Z,94.25
2022-11-25T01:39:48.064Z,94.32
2022-11-25T01:42:18.802Z,94.37
2022-11-25T01:44:51.311Z,94.48
2022-11-25T01:47:24.401Z,94.48
2022-11-25T01:50:05.025Z,94.47
2022-11-25T01:52:39.698Z,94.60
2022-11-25T01:55:11.555Z,94.60
2022-11-25T01:57:47.362Z,94.64
2022-11-25T02:00:17.380Z,94.64
2022-11-25T02:02:47.205Z,94.62
2022-11-25T02:05:19.267Z,94.42
2022-11-25T02:07:51.496Z,94.18
2022-11-25T02:10:26.818Z,94.40
2022-11-25T02:12:56.454Z,93.89
2022-11-25T02:15:25.724Z,93.81
2022-11-25T02:17:55.173Z,94.07
2022-11-25T02:20:25.285Z,93.67
2022-11-25T02:23:01.583Z,93.86
2022-11-25T02:25:35.671Z,93.34
2022-11-25T02:28:12.574Z,93.39
2022-11-25T02:30:42.165Z,93.52
2022-11-25T02:33:11.765Z,93.66
2022-11-25T02:35:48.990Z,93.21
2022-11-25T02:38:28.938Z,92.73
2022-11-25T02:41:16.295Z,92.94
2022-11-25T02:43:47.549Z,92.62
2022-11-25T02:46:22.576Z,92.56
2022-11-25T02:49:08.291Z,92.74
2022-11-25T02:51:26.009Z,92.27
2022-11-25T02:53:56.725Z,92.68
2022-11-25T02:56:29.464Z,92.90
2022-11-25T02:59:00.155Z,92.55
2022-11-25T03:01:31.742Z,92.58
2022-11-25T03:04:01.227Z,92.65
2022-11-25T03:06:31.477Z,92.57
2022-11-25T03:09:00.765Z,92.46
2022-11-25T03:11:31.807Z,92.66
2022-11-25T03:14:01.393Z,92.60
2022-11-25T03:16:30.735Z,92.72
2022-11-25T03:19:00.028Z,92.48
2022-11-25T03:21:29.266Z,92.10
2022-11-25T03:23:58.847Z,91.86
2022-11-25T03:26:28.194Z,91.72
2022-11-25T03:28:58.074Z,91.80
2022-11-25T03:31:27.517Z,91.34
2022-11-25T03:33:57.393Z,91.79
2022-11-25T03:36:26.830Z,91.97
2022-11-25T03:38:56.162Z,92.00
2022-11-25T03:41:25.399Z,92.44
2022-11-25T03:43:54.926Z,92.76
2022-11-25T03:46:24.815Z,92.63
2022-11-25T03:48:55.918Z,92.78
2022-11-25T03:51:25.965Z,92.64
2022-11-25T03:53:55.889Z,92.34
2022-11-25T03:56:25.483Z,91.67
2022-11-25T03:58:54.881Z,91.48
2022-11-25T04:01:24.576Z,91.12
2022-11-25T04:03:54.222Z,90.69
2022-11-25T04:06:24.124Z,91.29
2022-11-25T04:08:54.283Z,91.18
2022-11-25T04:11:25.569Z,91.23
2022-11-25T04:13:55.447Z,90.78
2022-11-25T04:16:26.402Z,91.14
2022-11-25T04:18:56.387Z,91.61
2022-11-25T04:21:25.728Z,91.61
2022-11-25T04:23:55.253Z,91.10
2022-11-25T04:26:24.608Z,91.40
2022-11-25T04:28:53.892Z,91.19
2022-11-25T04:31:23.536Z,91.25
2022-11-25T04:33:52.987Z,91.37
2022-11-25T04:36:23.533Z,91.24
2022-11-25T04:38:53.512Z,91.50
2022-11-25T04:41:24.235Z,91.60
2022-11-25T04:43:53.650Z,91.64
2022-11-25T04:46:26.390Z,91.73
2022-11-25T04:48:56.644Z,92.04
2022-11-25T04:51:26.055Z,92.09
2022-11-25T04:53:57.076Z,92.13
2022-11-25T04:56:26.560Z,92.05
2022-11-25T04:59:14.463Z,91.87
2022-11-25T05:01:45.550Z,91.96
2022-11-25T05:04:29.126Z,92.16
2022-11-25T05:06:58.475Z,91.91
2022-11-25T05:09:28.015Z,92.01
2022-11-25T05:12:05.978Z,92.26
2022-11-25T05:14:36.138Z,92.29
2022-11-25T05:17:06.745Z,92.25
2022-11-25T05:19:36.820Z,92.45
2022-11-25T05:22:06.743Z,92.43
2022-11-25T05:24:36.652Z,92.81
2022-11-25T05:27:06.791Z,92.82
2022-11-25T05:29:36.250Z,92.62
2022-11-25T05:32:06.477Z,92.66
2022-11-25T05:34:36.075Z,92.69
2022-11-25T05:37:07.611Z,92.78
2022-11-25T05:39:37.745Z,92.53
2022-11-25T05:42:11.532Z,92.50
2022-11-25T05:44:41.387Z,92.38
2022-11-25T05:47:10.849Z,92.48
2022-11-25T05:49:41.030Z,92.55
2022-11-25T05:52:10.331Z,92.39
2022-11-25T05:54:41.263Z,92.31
2022-11-25T05:57:10.654Z,92.28
2022-11-25T05:59:44.871Z,92.34
2022-11-25T06:02:15.905Z,92.54
2022-11-25T06:04:45.395Z,92.46
2022-11-25T06:07:14.676Z,92.52
2022-11-25T06:09:44.179Z,92.74
2022-11-25T06:12:13.965Z,92.94
2022-11-25T06:14:44.931Z,93.10
2022-11-25T06:17:14.235Z,93.15
2022-11-25T06:19:48.496Z,93.08
2022-11-25T06:22:17.913Z,93.10
2022-11-25T06:24:52.942Z,92.85
2022-11-25T06:27:18.674Z,92.74
2022-11-25T06:29:48.052Z,92.74
2022-11-25T06:32:17.468Z,92.74
2022-11-25T06:35:00.361Z,92.79
2022-11-25T06:37:37.666Z,92.87
2022-11-25T06:40:09.162Z,92.70
2022-11-25T06:42:39.350Z,92.58
2022-11-25T06:45:09.609Z,92.57
2022-11-25T06:47:39.088Z,92.61
2022-11-25T06:50:08.950Z,92.70
2022-11-25T06:52:38.825Z,92.61
2022-11-25T06:55:08.650Z,92.62
2022-11-25T06:57:37.948Z,92.52
2022-11-25T07:00:08.428Z,92.63
2022-11-25T07:02:41.915Z,92.53
2022-11-25T07:05:09.050Z,92.67
2022-11-25T07:07:38.511Z,92.57
2022-11-25T07:10:08.969Z,92.47
2022-11-25T07:12:38.231Z,92.38
2022-11-25T07:15:08.394Z,92.71
2022-11-25T07:17:37.845Z,92.84
2022-11-25T07:20:08.591Z,92.85
2022-11-25T07:22:37.833Z,92.92
2022-11-25T07:25:09.459Z,92.86
2022-11-25T07:27:38.849Z,92.85
2022-11-25T07:32:40.032Z,92.65
2022-11-25T07:35:09.780Z,92.62
2022-11-25T07:37:39.227Z,92.66
2022-11-25T07:40:09.493Z,92.86
2022-11-25T07:42:38.966Z,92.82
2022-11-25T07:45:10.543Z,92.88
2022-11-25T07:47:41.473Z,92.69
2022-11-25T07:50:11.038Z,92.67
2022-11-25T07:52:41.180Z,92.49
2022-11-25T07:55:10.884Z,92.41
2022-11-25T07:57:40.213Z,92.22
2022-11-25T08:00:10.681Z,91.79
2022-11-25T08:02:42.706Z,92.27
2022-11-25T08:05:12.222Z,91.79
2022-11-25T08:07:41.513Z,91.74
2022-11-25T08:10:11.630Z,91.23
2022-11-25T08:12:40.876Z,91.00
2022-11-25T08:15:10.810Z,90.90
2022-11-25T08:17:40.009Z,90.63
2022-11-25T08:20:10.203Z,90.43
2022-11-25T08:22:39.555Z,90.36
2022-11-25T08:25:09.319Z,90.44
2022-11-25T08:27:38.615Z,90.21
2022-11-25T08:30:08.915Z,90.12
2022-11-25T08:32:39.346Z,90.14
2022-11-25T08:35:09.246Z,90.14
2022-11-25T08:37:38.520Z,89.89
2022-11-25T08:40:08.974Z,90.48
2022-11-25T08:42:39.504Z,89.79
2022-11-25T08:45:09.882Z,89.38
2022-11-25T08:47:39.178Z,88.84
2022-11-25T08:50:10.789Z,88.98
2022-11-25T08:52:40.204Z,88.12
2022-11-25T08:55:09.815Z,87.99
2022-11-25T08:57:39.284Z,88.05
2022-11-25T09:00:09.806Z,87.43
2022-11-25T09:02:39.063Z,87.66
2022-11-25T09:05:08.556Z,87.00
2022-11-25T09:07:38.023Z,87.05
2022-11-25T09:10:10.368Z,87.38
2022-11-25T09:12:39.628Z,87.08
2022-11-25T09:15:10.077Z,86.70
2022-11-25T09:17:39.372Z,86.59
2022-11-25T09:20:09.293Z,86.80
2022-11-25T09:22:38.515Z,85.83
2022-11-25T09:25:08.700Z,85.86
2022-11-25T09:27:37.922Z,85.11
2022-11-25T09:30:08.252Z,84.52
2022-11-25T09:32:37.499Z,84.28
2022-11-25T09:35:07.153Z,83.77
2022-11-25T09:37:36.647Z,83.66
2022-11-25T09:40:07.972Z,82.69
2022-11-25T09:43:14.383Z,82.64
2022-11-25T09:46:19.827Z,81.06
2022-11-25T09:49:13.927Z,81.19
2022-11-25T09:52:01.484Z,79.81
2022-11-25T09:54:43.079Z,77.61
2022-11-25T09:57:23.104Z,73.24
2022-11-25T10:00:04.460Z,70.90
2022-11-25T10:02:41.027Z,69.77
2022-11-25T10:05:44.136Z,68.81
2022-11-25T10:08:22.501Z,67.60
2022-11-25T10:11:03.647Z,67.05
2022-11-25T10:13:44.938Z,66.08
2022-11-25T10:16:17.425Z,66.61
2022-11-25T10:18:49.903Z,66.01
2022-11-25T10:21:19.128Z,65.31
2022-11-25T10:23:48.444Z,65.37
2022-11-25T10:26:20.822Z,64.18
2022-11-25T10:28:56.657Z,63.85
2022-11-25T10:31:35.270Z,64.14
2022-11-25T10:34:07.811Z,63.10
2022-11-25T10:36:39.343Z,64.62
2022-11-25T10:39:29.962Z,63.92
2022-11-25T10:42:07.201Z,64.18
2022-11-25T10:44:38.945Z,63.56
2022-11-25T10:47:20.375Z,61.26
2022-11-25T10:50:09.752Z,62.24
2022-11-25T10:52:47.853Z,63.08
2022-11-25T10:55:20.248Z,62.85
2022-11-25T10:57:49.449Z,61.37
2022-11-25T11:00:37.804Z,61.50
2022-11-25T11:03:19.126Z,62.33
2022-11-25T11:05:51.302Z,63.11
2022-11-25T11:08:25.977Z,63.09
2022-11-25T11:11:18.273Z,62.38
2022-11-25T11:13:48.650Z,62.29
2022-11-25T11:16:29.671Z,64.87
2022-11-25T11:18:59.263Z,64.81
2022-11-25T11:21:34.807Z,65.75
2022-11-25T11:24:06.921Z,65.69
2022-11-25T11:26:37.265Z,65.25
2022-11-25T11:29:13.976Z,65.80
2022-11-25T11:31:43.134Z,66.04
2022-11-25T11:34:21.636Z,67.34
2022-11-25T11:37:17.303Z,67.76
2022-11-25T11:40:06.444Z,68.44
2022-11-25T11:42:50.546Z,69.71
2022-11-25T11:45:48.152Z,71.67
2022-11-25T11:48:42.211Z,72.58
2022-11-25T11:51:14.794Z,73.43
2022-11-25T11:54:01.688Z,73.97
2022-11-25T11:56:36.904Z,74.42
2022-11-25T11:59:23.952Z,74.48
2022-11-25T12:02:08.671Z,74.86
2022-11-25T12:04:44.200Z,75.33
2022-11-25T12:07:23.020Z,75.72
2022-11-25T12:09:55.549Z,75.42
2022-11-25T12:12:28.151Z,76.13
2022-11-25T12:14:58.459Z,76.06
2022-11-25T12:17:30.979Z,76.40
2022-11-25T12:20:10.371Z,76.60
2022-11-25T12:22:45.366Z,76.56
2022-11-25T12:25:29.749Z,77.04
2022-11-25T12:28:11.334Z,77.14
2022-11-25T12:31:05.572Z,77.18
2022-11-25T12:33:52.913Z,77.47
2022-11-25T12:36:39.217Z,77.99
2022-11-25T12:39:36.639Z,77.87
2022-11-25T12:42:09.231Z,78.82
2022-11-25T12:44:51.639Z,78.33
2022-11-25T12:47:21.855Z,78.08
2022-11-25T12:49:53.205Z,78.55
2022-11-25T12:52:34.545Z,78.12
2022-11-25T12:55:19.319Z,78.35
2022-11-25T12:57:51.933Z,78.86
2022-11-25T13:00:42.484Z,77.47
2022-11-25T13:03:15.684Z,77.65
2022-11-25T13:06:12.647Z,76.80
2022-11-25T13:08:48.106Z,77.43
2022-11-25T13:11:36.038Z,78.10
2022-11-25T13:14:18.012Z,77.90
2022-11-25T13:16:49.678Z,78.74
2022-11-25T13:19:20.155Z,77.07
2022-11-25T13:22:06.469Z,77.74
2022-11-25T13:24:43.269Z,78.26
2022-11-25T13:27:36.077Z,78.64
2022-11-25T13:30:07.457Z,78.96
2022-11-25T13:32:40.655Z,79.41
2022-11-25T13:35:33.299Z,79.42
2022-11-25T13:38:04.501Z,79.99
2022-11-25T13:40:37.462Z,80.07
2022-11-25T13:43:09.081Z,80.23
2022-11-25T13:45:40.609Z,80.43
2022-11-25T13:48:22.038Z,80.67
2022-11-25T13:51:10.833Z,81.24
2022-11-25T13:53:29.704Z,80.79
2022-11-25T13:56:23.504Z,80.85
2022-11-25T13:59:13.764Z,81.21
2022-11-25T14:01:49.119Z,81.41
2022-11-25T14:04:21.811Z,81.09
2022-11-25T14:06:56.359Z,81.49
2022-11-25T14:09:37.873Z,81.60
2022-11-25T14:12:36.285Z,81.37
2022-11-25T14:15:30.043Z,81.94
2022-11-25T14:18:17.795Z,82.47
2022-11-25T14:20:52.772Z,82.94
2022-11-25T14:23:44.817Z,83.21
2022-11-25T14:26:42.189Z,83.28
2022-11-25T14:29:03.667Z,83.30
2022-11-25T14:31:38.937Z,83.12
2022-11-25T14:34:23.538Z,83.34
2022-11-25T14:37:08.115Z,83.96
2022-11-25T14:39:40.589Z,83.75
2022-11-25T14:42:13.696Z,83.93
2022-11-25T14:44:51.199Z,83.94
2022-11-25T14:47:28.682Z,84.21
2022-11-25T14:52:36.995Z,84.24
2022-11-25T14:55:07.711Z,84.41
2022-11-25T14:57:42.070Z,84.54
2022-11-25T15:00:15.550Z,84.43
2022-11-25T15:02:59.404Z,84.56
2022-11-25T15:05:34.403Z,85.06
2022-11-25T15:08:06.836Z,85.17
2022-11-25T15:10:45.702Z,85.33
2022-11-25T15:13:33.122Z,85.31
2022-11-25T15:16:14.199Z,85.42
2022-11-25T15:18:52.025Z,85.45
2022-11-25T15:21:24.169Z,85.61
2022-11-25T15:23:53.762Z,85.84
2022-11-25T15:26:29.093Z,85.93
2022-11-25T15:29:00.980Z,85.97
2022-11-25T15:31:33.550Z,86.05
2022-11-25T15:34:05.128Z,86.10
2022-11-25T15:36:35.877Z,86.30
2022-11-25T15:39:20.170Z,86.81
2022-11-25T15:41:51.268Z,86.94
2022-11-25T15:44:23.630Z,87.50
2022-11-25T15:47:15.584Z,87.49
2022-11-25T15:49:50.338Z,87.74
2022-11-25T15:52:21.204Z,87.59
2022-11-25T15:54:52.120Z,87.90
2022-11-25T15:57:24.136Z,87.94
2022-11-25T15:59:59.800Z,88.08
2022-11-25T16:02:45.177Z,88.42
2022-11-25T16:05:18.132Z,88.57
2022-11-25T16:07:56.648Z,88.51
2022-11-25T16:10:34.614Z,88.42
2022-11-25T16:13:29.449Z,88.85
2022-11-25T16:16:11.123Z,88.94
2022-11-25T16:18:58.717Z,89.14
2022-11-25T16:21:31.569Z,89.18
2022-11-25T16:24:19.346Z,89.14
2022-11-25T16:26:54.455Z,89.06
2022-11-25T16:29:29.601Z,89.33
2022-11-25T16:32:00.214Z,89.50
2022-11-25T16:34:30.741Z,89.52
2022-11-25T16:36:59.963Z,89.41
2022-11-25T16:39:29.348Z,89.44
2022-11-25T16:42:01.658Z,89.42
2022-11-25T16:44:32.032Z,89.64
2022-11-25T16:47:02.148Z,89.67
2022-11-25T16:49:32.020Z,89.80
2022-11-25T16:52:01.359Z,89.52
2022-11-25T16:54:31.599Z,88.88
2022-11-25T16:57:01.062Z,88.70
2022-11-25T16:59:33.782Z,88.62
2022-11-25T17:02:05.464Z,88.90
2022-11-25T17:04:34.910Z,89.13
2022-11-25T17:09:37.570Z,89.31
2022-11-25T17:12:08.728Z,89.37
2022-11-25T17:14:38.513Z,89.60
2022-11-25T17:17:08.939Z,89.76
2022-11-25T17:19:38.529Z,89.79
2022-11-25T17:22:26.162Z,89.80
2022-11-25T17:24:57.742Z,89.74
2022-11-25T17:27:30.493Z,89.74
2022-11-25T17:30:02.378Z,89.80
2022-11-25T17:32:33.124Z,89.77
2022-11-25T17:35:02.515Z,89.73
2022-11-25T17:37:32.702Z,89.90
2022-11-25T17:40:02.074Z,89.93
2022-11-25T17:42:34.345Z,90.01
2022-11-25T17:45:03.294Z,90.05
2022-11-25T17:47:32.910Z,90.17
2022-11-25T17:50:02.677Z,90.46
2022-11-25T17:52:31.890Z,90.58
2022-11-25T17:55:01.445Z,90.63
2022-11-25T17:57:30.912Z,90.73
2022-11-25T18:00:00.633Z,90.80
2022-11-25T18:02:30.224Z,91.09
2022-11-25T18:04:59.956Z,91.03
2022-11-25T18:07:29.527Z,91.13
2022-11-25T18:09:58.838Z,91.25
2022-11-25T18:12:30.745Z,91.33
2022-11-25T18:15:01.979Z,91.40
2022-11-25T18:17:31.442Z,91.63
2022-11-25T18:20:00.882Z,91.37
2022-11-25T18:22:30.896Z,91.51
2022-11-25T18:25:03.162Z,91.62
2022-11-25T18:27:32.265Z,91.63
2022-11-25T18:30:02.634Z,91.70
2022-11-25T18:32:31.864Z,91.75
2022-11-25T18:35:01.186Z,91.85
2022-11-25T18:37:30.536Z,91.92
2022-11-25T18:39:59.886Z,91.97
2022-11-25T18:42:29.348Z,91.90
2022-11-25T18:44:58.992Z,91.89
2022-11-25T18:47:28.429Z,92.00
2022-11-25T18:49:57.907Z,91.99
2022-11-25T18:52:27.420Z,92.11
2022-11-25T18:54:56.722Z,92.32
2022-11-25T18:57:26.116Z,92.43
2022-11-25T19:00:17.265Z,92.47
2022-11-25T19:02:26.581Z,92.48
2022-11-25T19:04:55.920Z,92.71
2022-11-25T19:07:25.811Z,92.58
2022-11-25T19:09:55.414Z,92.52
2022-11-25T19:12:24.698Z,92.51
2022-11-25T19:14:55.755Z,92.54
2022-11-25T19:17:26.095Z,92.53
2022-11-25T19:19:55.766Z,92.44
2022-11-25T19:22:25.198Z,92.69
2022-11-25T19:24:56.110Z,92.67
2022-11-25T19:27:26.592Z,92.75
2022-11-25T19:29:56.292Z,92.77
2022-11-25T19:32:27.873Z,92.80
2022-11-25T19:35:00.649Z,92.92
2022-11-25T19:37:31.659Z,92.96
2022-11-25T19:40:02.896Z,92.91
2022-11-25T19:42:32.298Z,92.92
2022-11-25T19:45:03.595Z,92.94
2022-11-25T19:47:32.839Z,92.96
2022-11-25T19:50:03.112Z,93.08
2022-11-25T19:52:35.918Z,93.11
2022-11-25T19:55:16.948Z,93.07
2022-11-25T19:57:46.853Z,93.06
2022-11-25T20:00:17.737Z,93.08
2022-11-25T20:02:49.202Z,93.06
2022-11-25T20:05:36.225Z,93.26
2022-11-25T20:08:06.212Z,93.19
2022-11-25T20:10:35.489Z,93.15
2022-11-25T20:13:07.224Z,93.24
2022-11-25T20:15:37.744Z,93.29
2022-11-25T20:18:11.586Z,93.32
2022-11-25T20:20:41.415Z,93.38
2022-11-25T20:23:28.287Z,93.41
2022-11-25T20:25:57.652Z,93.47
2022-11-25T20:28:31.360Z,93.46
2022-11-25T20:31:00.983Z,93.50
2022-11-25T20:33:30.326Z,93.71
2022-11-25T20:36:02.899Z,93.58
2022-11-25T20:38:31.808Z,93.52
2022-11-25T20:41:02.047Z,93.48
2022-11-25T20:43:33.674Z,93.62
2022-11-25T20:46:04.002Z,93.57
2022-11-25T20:48:35.325Z,93.54
2022-11-25T20:51:06.772Z,93.53
2022-11-25T20:53:36.717Z,93.59
2022-11-25T20:56:06.625Z,93.69
2022-11-25T20:58:37.394Z,93.58
2022-11-25T21:01:07.856Z,93.61
2022-11-25T21:03:37.606Z,93.60
2022-11-25T21:06:10.163Z,93.53
2022-11-25T21:08:39.027Z,93.50
2022-11-25T21:11:08.223Z,93.46
2022-11-25T21:13:37.913Z,93.36
2022-11-25T21:16:07.467Z,93.30
2022-11-25T21:18:37.088Z,93.38
2022-11-25T21:21:09.488Z,93.41
2022-11-25T21:23:39.581Z,93.35
2022-11-25T21:26:14.460Z,93.32
2022-11-25T21:28:45.101Z,93.28
2022-11-25T21:31:22.690Z,93.26
2022-11-25T21:33:54.206Z,93.32
2022-11-25T21:36:26.905Z,93.39
2022-11-25T21:39:05.324Z,93.37
2022-11-25T21:41:35.538Z,93.52
2022-11-25T21:44:06.667Z,93.39
2022-11-25T21:46:36.145Z,93.41
2022-11-25T21:49:11.360Z,93.42
2022-11-25T21:51:41.223Z,93.32
2022-11-25T21:54:11.611Z,93.32
2022-11-25T21:56:41.129Z,93.25
2022-11-25T21:59:13.844Z,93.24
2022-11-25T22:01:43.269Z,93.30
2022-11-25T22:04:17.767Z,93.21
2022-11-25T22:06:48.112Z,93.26
2022-11-25T22:09:17.944Z,93.24
2022-11-25T22:11:52.993Z,93.25
2022-11-25T22:14:26.846Z,93.08
2022-11-25T22:16:57.685Z,93.16
2022-11-25T22:19:29.053Z,93.13
2022-11-25T22:22:00.056Z,93.18
2022-11-25T22:24:30.599Z,93.29
2022-11-25T22:26:59.937Z,93.14
2022-11-25T22:29:31.847Z,93.32
2022-11-25T22:32:01.291Z,93.21
2022-11-25T22:34:30.829Z,93.20
2022-11-25T22:37:00.140Z,93.21
2022-11-25T22:39:29.547Z,93.20
2022-11-25T22:42:05.097Z,93.28
2022-11-25T22:44:37.106Z,93.24
2022-11-25T22:47:07.602Z,93.37
2022-11-25T22:49:44.368Z,93.41
2022-11-25T22:52:25.322Z,93.42
2022-11-25T22:54:54.815Z,93.39
2022-11-25T22:57:24.175Z,93.31
2022-11-25T22:59:53.573Z,93.20
2022-11-25T23:02:28.834Z,93.23
2022-11-25T23:04:58.378Z,93.13
2022-11-25T23:07:27.711Z,93.17
2022-11-25T23:09:57.175Z,93.18
2022-11-25T23:12:26.410Z,93.16
2022-11-25T23:14:55.671Z,93.18
2022-11-25T23:17:26.830Z,93.31
2022-11-25T23:19:56.223Z,93.28
2022-11-25T23:22:25.451Z,93.16
2022-11-25T23:24:54.806Z,93.19
2022-11-25T23:27:24.070Z,93.10
2022-11-25T23:29:53.312Z,93.18
2022-11-25T23:32:22.559Z,93.16
2022-11-25T23:34:52.168Z,93.12
2022-11-25T23:37:21.466Z,93.14
2022-11-25T23:39:52.902Z,93.13
2022-11-25T23:42:22.145Z,93.15
2022-11-25T23:44:51.374Z,93.16
2022-11-25T23:47:23.127Z,93.17
2022-11-25T23:49:53.527Z,93.15
2022-11-25T23:52:27.210Z,93.10
2022-11-25T23:54:56.832Z,93.11
2022-11-25T23:57:29.304Z,93.10
2022-11-25T23:59:58.693Z,93.11
